Time;durP1;ratioP1;P1;durP2;ratioP2;P2;SDS_P1;SDS_P2;PMS_P1;PMS_P2;Temp;Humidity;BMP_temperature;BMP_pressure;BME280_temperature;BME280_humidity;BME280_pressure;Samples;Min_cycle;Max_cycle;Signal;HPM_P1;HPM_P2
2021/12/13 00:00:08;;;;;;;101.88;33.78;;;;;;;;;;5030870;28;20129;-85
2021/12/13 00:02:40;;;;;;;114.57;35.33;;;;;;;;;;5051638;28;20052;-86
2021/12/13 00:05:08;;;;;;;103.63;34.15;;;;;;;;;;5034461;28;20051;-86
2021/12/13 00:07:39;;;;;;;111.65;35.65;;;;;;;;;;5050042;28;20102;-86
2021/12/13 00:10:25;;;;;;;112.22;35.45;;;;;;;;;;5027377;28;20509;-86
2021/12/13 00:13:00;;;;;;;120.65;37.42;;;;;;;;;;5059813;28;20061;-86
2021/12/13 00:15:30;;;;;;;118.45;36.90;;;;;;;;;;5045545;28;20509;-86
2021/12/13 00:17:56;;;;;;;124.47;37.65;;;;;;;;;;5034305;28;20060;-85
2021/12/13 00:20:30;;;;;;;112.22;37.95;;;;;;;;;;5024538;28;22850;-86
2021/12/13 00:22:58;;;;;;;102.78;35.20;;;;;;;;;;5064160;28;20040;-86
2021/12/13 00:25:28;;;;;;;120.53;37.50;;;;;;;;;;5044347;28;20687;-85
2021/12/13 00:27:59;;;;;;;109.38;35.95;;;;;;;;;;5048176;28;20044;-85
2021/12/13 00:30:26;;;;;;;103.40;34.13;;;;;;;;;;5042913;28;20430;-86
2021/12/13 00:33:11;;;;;;;103.63;35.90;;;;;;;;;;5044139;28;20139;-85
2021/12/13 00:36:05;;;;;;;91.75;35.40;;;;;;;;;;5047469;28;20139;-86
2021/12/13 00:38:32;;;;;;;108.82;36.58;;;;;;;;;;4999271;28;20047;-85
2021/12/13 00:41:07;;;;;;;98.97;35.95;;;;;;;;;;5048584;28;20050;-85
2021/12/13 00:43:37;;;;;;;106.43;37.15;;;;;;;;;;5040614;28;20056;-85
2021/12/13 00:46:06;;;;;;;138.57;38.30;;;;;;;;;;5054042;28;20052;-85
2021/12/13 00:48:32;;;;;;;93.95;36.15;;;;;;;;;;5044408;28;20367;-84
2021/12/13 00:51:03;;;;;;;91.72;35.28;;;;;;;;;;5043939;28;20040;-86
2021/12/13 00:53:39;;;;;;;95.68;35.25;;;;;;;;;;5015446;28;20047;-86
2021/12/13 00:56:34;;;;;;;115.75;36.50;;;;;;;;;;5063379;28;20492;-86
2021/12/13 00:59:02;;;;;;;99.18;35.17;;;;;;;;;;5065967;28;20044;-85
2021/12/13 01:01:30;;;;;;;92.35;34.35;;;;;;;;;;5031129;28;20044;-85
2021/12/13 01:03:57;;;;;;;95.10;33.40;;;;;;;;;;5045249;28;20183;-85
2021/12/13 01:06:54;;;;;;;94.63;34.47;;;;;;;;;;5047676;28;20055;-85
2021/12/13 01:09:20;;;;;;;104.60;34.90;;;;;;;;;;5027625;28;20044;-85
2021/12/13 01:11:59;;;;;;;110.55;35.38;;;;;;;;;;5065031;28;20062;-85
2021/12/13 01:14:32;;;;;;;107.30;35.33;;;;;;;;;;5016322;28;20135;-86
2021/12/13 01:17:19;;;;;;;83.60;32.95;;;;;;;;;;5049883;28;20080;-85
2021/12/13 01:19:55;;;;;;;86.07;32.92;;;;;;;;;;5052956;28;20332;-85
2021/12/13 01:25:41;;;;;;;93.65;34.45;;;;;;;;;;5033754;28;20071;-85
2021/12/13 01:28:27;;;;;;;88.80;32.85;;;;;;;;;;5043447;28;20080;-86
2021/12/13 01:30:58;;;;;;;93.35;33.60;;;;;;;;;;5050302;28;20188;-86
2021/12/13 01:33:26;;;;;;;91.13;32.15;;;;;;;;;;5043251;28;20044;-86
2021/12/13 01:36:02;;;;;;;86.35;30.25;;;;;;;;;;5053618;28;20129;-85
2021/12/13 01:38:33;;;;;;;95.22;31.60;;;;;;;;;;5046016;28;20510;-86
2021/12/13 01:41:06;;;;;;;80.88;30.33;;;;;;;;;;5036963;28;20044;-85
2021/12/13 01:43:33;;;;;;;72.95;30.15;;;;;;;;;;5067169;28;20842;-85
2021/12/13 01:46:00;;;;;;;75.47;29.08;;;;;;;;;;5066014;28;20098;-85
2021/12/13 01:48:30;;;;;;;56.88;25.17;;;;;;;;;;5046298;28;20588;-85
2021/12/13 01:51:05;;;;;;;67.15;26.73;;;;;;;;;;5064099;28;20545;-86
2021/12/13 01:53:50;;;;;;;58.20;24.90;;;;;;;;;;5048380;28;20059;-85
2021/12/13 01:59:28;;;;;;;60.60;23.55;;;;;;;;;;5060059;28;20048;-86
2021/12/13 02:02:22;;;;;;;50.70;22.80;;;;;;;;;;5049790;28;20056;-86
2021/12/13 02:05:04;;;;;;;46.85;22.23;;;;;;;;;;5060275;28;20105;-86
2021/12/13 02:07:35;;;;;;;43.45;20.15;;;;;;;;;;5043947;28;20428;-86
2021/12/13 02:10:02;;;;;;;45.85;21.70;;;;;;;;;;5051046;28;20052;-85
2021/12/13 02:12:30;;;;;;;54.20;22.80;;;;;;;;;;5048141;28;20048;-86
2021/12/13 02:17:45;;;;;;;45.85;21.35;;;;;;;;;;5033094;28;22109;-86
2021/12/13 02:20:16;;;;;;;54.08;23.35;;;;;;;;;;4992779;28;20048;-86
2021/12/13 02:22:54;;;;;;;49.40;22.65;;;;;;;;;;5029159;28;20048;-85
2021/12/13 02:25:38;;;;;;;43.67;23.50;;;;;;;;;;5010674;28;20494;-86
2021/12/13 02:28:24;;;;;;;47.95;22.23;;;;;;;;;;5024940;28;20421;-86
2021/12/13 02:31:12;;;;;;;43.83;21.50;;;;;;;;;;5048588;28;20045;-86
2021/12/13 02:33:40;;;;;;;44.17;22.58;;;;;;;;;;5011979;28;20047;-85
2021/12/13 02:36:09;;;;;;;53.60;25.25;;;;;;;;;;5011677;28;20052;-85
2021/12/13 02:38:35;;;;;;;50.05;24.70;;;;;;;;;;5030902;28;20059;-85
2021/12/13 02:41:01;;;;;;;53.20;25.50;;;;;;;;;;5012534;28;20048;-85
2021/12/13 02:43:31;;;;;;;57.22;26.27;;;;;;;;;;5015387;28;20198;-85
2021/12/13 02:45:58;;;;;;;52.63;25.88;;;;;;;;;;5031323;28;20075;-85
2021/12/13 02:48:45;;;;;;;63.75;27.58;;;;;;;;;;5011422;28;20055;-85
2021/12/13 02:51:16;;;;;;;57.30;27.02;;;;;;;;;;5045112;28;20048;-85
2021/12/13 02:53:57;;;;;;;58.53;28.17;;;;;;;;;;5030302;28;20135;-85
2021/12/13 02:56:28;;;;;;;57.90;26.52;;;;;;;;;;4992909;28;20479;-84
2021/12/13 02:58:59;;;;;;;56.53;26.90;;;;;;;;;;5031885;28;20036;-84
2021/12/13 03:01:52;;;;;;;59.92;27.90;;;;;;;;;;5025867;28;20063;-85
2021/12/13 03:04:24;;;;;;;59.47;26.55;;;;;;;;;;5022883;28;20052;-85
2021/12/13 03:07:02;;;;;;;60.40;28.45;;;;;;;;;;5015162;28;20205;-85
2021/12/13 03:09:31;;;;;;;53.95;26.27;;;;;;;;;;5025779;28;20447;-84
2021/12/13 03:11:58;;;;;;;49.72;27.20;;;;;;;;;;5030923;28;20129;-85
2021/12/13 03:14:27;;;;;;;59.45;27.45;;;;;;;;;;5011326;28;20139;-84
2021/12/13 03:16:56;;;;;;;55.85;26.33;;;;;;;;;;5020456;28;22536;-84
2021/12/13 03:19:31;;;;;;;49.53;26.02;;;;;;;;;;5033612;28;20056;-85
2021/12/13 03:22:17;;;;;;;54.65;27.02;;;;;;;;;;5028568;28;20060;-84
2021/12/13 03:24:45;;;;;;;46.92;24.98;;;;;;;;;;5040799;28;20473;-84
2021/12/13 03:27:18;;;;;;;60.58;27.50;;;;;;;;;;5007328;28;20403;-84
2021/12/13 03:29:59;;;;;;;40.88;23.92;;;;;;;;;;5031197;28;20438;-84
2021/12/13 03:32:25;;;;;;;45.50;24.95;;;;;;;;;;5019174;28;20395;-84
2021/12/13 03:34:56;;;;;;;44.67;24.00;;;;;;;;;;5008879;28;20696;-84
2021/12/13 03:37:24;;;;;;;45.00;24.10;;;;;;;;;;5004185;28;20044;-85
2021/12/13 03:39:53;;;;;;;42.92;22.92;;;;;;;;;;5032483;28;20090;-85
2021/12/13 03:42:40;;;;;;;45.17;23.73;;;;;;;;;;5030392;28;20152;-85
2021/12/13 03:45:18;;;;;;;43.38;22.08;;;;;;;;;;5010076;28;20040;-84
2021/12/13 03:47:45;;;;;;;39.03;20.02;;;;;;;;;;5013657;28;20056;-84
2021/12/13 03:50:13;;;;;;;32.90;19.45;;;;;;;;;;4994606;28;20139;-84
2021/12/13 03:52:41;;;;;;;39.35;21.02;;;;;;;;;;5028043;28;20222;-84
2021/12/13 03:55:08;;;;;;;34.28;20.50;;;;;;;;;;5023428;28;20045;-84
2021/12/13 03:57:34;;;;;;;36.33;19.90;;;;;;;;;;5028600;28;20391;-84
2021/12/13 04:00:03;;;;;;;38.60;20.27;;;;;;;;;;5012711;28;20045;-84
2021/12/13 04:02:35;;;;;;;34.08;19.65;;;;;;;;;;5011910;28;20055;-85
2021/12/13 04:05:06;;;;;;;33.83;19.80;;;;;;;;;;5028071;28;20139;-84
2021/12/13 04:07:42;;;;;;;34.97;18.60;;;;;;;;;;5030127;28;20044;-84
2021/12/13 04:10:10;;;;;;;30.73;17.98;;;;;;;;;;5040925;28;20075;-85
2021/12/13 04:12:46;;;;;;;35.33;18.27;;;;;;;;;;5012713;28;20044;-84
2021/12/13 04:15:34;;;;;;;35.95;18.27;;;;;;;;;;5019338;28;20108;-84
2021/12/13 04:18:41;;;;;;;29.65;16.48;;;;;;;;;;5033891;28;20052;-84
2021/12/13 04:20:59;;;;;;;24.05;15.20;;;;;;;;;;5025973;28;20040;-84
2021/12/13 04:23:27;;;;;;;26.20;15.98;;;;;;;;;;5030808;28;20037;-84
2021/12/13 04:25:54;;;;;;;28.00;16.58;;;;;;;;;;5034066;28;20577;-84
2021/12/13 04:28:38;;;;;;;27.33;15.38;;;;;;;;;;5028279;28;20056;-84
2021/12/13 04:31:05;;;;;;;27.73;16.08;;;;;;;;;;5012873;28;20488;-84
2021/12/13 04:33:34;;;;;;;29.70;16.00;;;;;;;;;;5032825;28;20099;-84
2021/12/13 04:36:02;;;;;;;23.70;14.73;;;;;;;;;;5052507;28;20048;-84
2021/12/13 04:38:37;;;;;;;24.77;15.43;;;;;;;;;;5037998;28;20037;-85
2021/12/13 04:41:03;;;;;;;28.67;16.85;;;;;;;;;;5029548;28;21235;-84
2021/12/13 04:43:30;;;;;;;28.77;15.65;;;;;;;;;;5038649;28;20040;-84
2021/12/13 04:45:59;;;;;;;24.25;15.45;;;;;;;;;;5019769;28;20105;-84
2021/12/13 04:48:32;;;;;;;26.65;15.35;;;;;;;;;;5044742;28;20036;-84
2021/12/13 04:51:04;;;;;;;28.17;15.38;;;;;;;;;;5014920;28;20047;-84
2021/12/13 04:53:44;;;;;;;25.05;15.30;;;;;;;;;;5023350;28;20104;-83
2021/12/13 04:56:12;;;;;;;24.02;15.30;;;;;;;;;;5030648;28;20048;-84
2021/12/13 04:58:40;;;;;;;29.23;15.38;;;;;;;;;;5038008;28;20044;-83
2021/12/13 05:01:15;;;;;;;27.30;15.30;;;;;;;;;;5044835;28;20139;-84
2021/12/13 05:03:43;;;;;;;34.33;15.88;;;;;;;;;;5055487;28;20043;-84
2021/12/13 05:06:18;;;;;;;26.27;15.73;;;;;;;;;;5016941;28;20036;-83
2021/12/13 05:08:46;;;;;;;26.05;15.73;;;;;;;;;;5019468;28;20076;-84
2021/12/13 05:11:12;;;;;;;26.98;16.38;;;;;;;;;;5036686;28;20047;-85
2021/12/13 05:13:39;;;;;;;30.20;16.85;;;;;;;;;;5023635;28;20097;-84
2021/12/13 05:16:09;;;;;;;25.35;16.33;;;;;;;;;;5014819;28;20037;-86
2021/12/13 05:18:39;;;;;;;23.92;14.90;;;;;;;;;;5030873;28;20052;-84
2021/12/13 05:21:09;;;;;;;31.17;16.63;;;;;;;;;;5027604;28;20058;-84
2021/12/13 05:23:35;;;;;;;23.70;15.57;;;;;;;;;;5031315;28;20037;-84
2021/12/13 05:26:03;;;;;;;29.42;16.70;;;;;;;;;;5017031;28;20037;-85
2021/12/13 05:28:41;;;;;;;29.73;17.38;;;;;;;;;;5037074;28;20114;-83
2021/12/13 05:31:09;;;;;;;27.40;14.68;;;;;;;;;;5014500;28;20053;-82
2021/12/13 05:33:36;;;;;;;31.10;16.60;;;;;;;;;;5015202;28;20037;-83
2021/12/13 05:36:22;;;;;;;25.50;15.15;;;;;;;;;;5049056;28;20041;-83
2021/12/13 05:38:50;;;;;;;30.60;15.52;;;;;;;;;;5000951;28;20037;-83
2021/12/13 05:41:21;;;;;;;23.58;15.57;;;;;;;;;;4992722;28;20145;-84
2021/12/13 05:44:04;;;;;;;21.52;14.40;;;;;;;;;;4976951;28;20103;-82
2021/12/13 05:46:35;;;;;;;27.05;15.38;;;;;;;;;;4996256;28;20053;-83
2021/12/13 05:49:03;;;;;;;21.00;13.18;;;;;;;;;;4975378;28;20048;-83
2021/12/13 05:51:31;;;;;;;22.52;12.88;;;;;;;;;;4976821;28;20068;-82
2021/12/13 05:54:17;;;;;;;19.67;13.25;;;;;;;;;;5009043;28;20046;-83
2021/12/13 05:56:51;;;;;;;22.08;12.65;;;;;;;;;;5007148;28;20641;-83
2021/12/13 05:59:22;;;;;;;18.88;12.85;;;;;;;;;;4991016;28;20049;-83
2021/12/13 06:02:08;;;;;;;21.95;13.13;;;;;;;;;;5006165;28;20053;-83
2021/12/13 06:04:37;;;;;;;17.63;11.98;;;;;;;;;;4991323;28;20045;-83
2021/12/13 06:07:25;;;;;;;21.70;13.20;;;;;;;;;;4994282;28;20041;-83
2021/12/13 06:10:10;;;;;;;20.70;12.57;;;;;;;;;;5013458;28;20049;-83
2021/12/13 06:12:55;;;;;;;18.98;12.05;;;;;;;;;;5038565;28;20060;-83
2021/12/13 06:15:26;;;;;;;19.92;13.60;;;;;;;;;;5041017;28;20037;-83
2021/12/13 06:18:06;;;;;;;20.27;13.45;;;;;;;;;;5035074;28;20714;-83
2021/12/13 06:20:49;;;;;;;18.27;12.80;;;;;;;;;;5014878;28;20033;-83
2021/12/13 06:23:25;;;;;;;21.15;14.02;;;;;;;;;;5030429;28;20053;-83
2021/12/13 06:26:05;;;;;;;24.00;14.65;;;;;;;;;;5049918;28;20131;-83
2021/12/13 06:28:44;;;;;;;23.92;16.17;;;;;;;;;;5050581;28;20052;-83
2021/12/13 06:31:17;;;;;;;23.73;15.85;;;;;;;;;;5041330;28;20044;-83
2021/12/13 06:33:53;;;;;;;23.08;14.82;;;;;;;;;;5051046;28;20041;-83
2021/12/13 06:36:27;;;;;;;25.65;15.82;;;;;;;;;;5026660;28;20135;-83
2021/12/13 06:38:55;;;;;;;25.55;15.90;;;;;;;;;;5033594;28;20115;-83
2021/12/13 06:41:21;;;;;;;;;;;;;;;;;;5013922;28;24061;-83
2021/12/13 06:44:07;;;;;;;26.88;17.60;;;;;;;;;;5032238;28;19985;-83
2021/12/13 06:46:43;;;;;;;25.42;16.92;;;;;;;;;;5014017;28;20048;-83
2021/12/13 06:49:28;;;;;;;29.63;18.48;;;;;;;;;;5017572;28;20041;-82
2021/12/13 06:52:19;;;;;;;27.00;17.75;;;;;;;;;;5046116;28;20525;-83
2021/12/13 06:54:46;;;;;;;31.23;19.35;;;;;;;;;;5049034;28;20487;-83
2021/12/13 06:57:19;;;;;;;30.50;19.27;;;;;;;;;;5048648;28;20487;-82
2021/12/13 07:00:04;;;;;;;31.13;19.60;;;;;;;;;;4999936;28;20040;-83
2021/12/13 07:02:41;;;;;;;30.08;19.55;;;;;;;;;;5032227;28;20052;-83
2021/12/13 07:05:13;;;;;;;30.92;21.15;;;;;;;;;;5025405;28;20472;-84
2021/12/13 07:07:39;;;;;;;33.28;21.67;;;;;;;;;;5033563;28;20111;-83
2021/12/13 07:10:08;;;;;;;31.20;20.67;;;;;;;;;;5008055;28;20048;-84
2021/12/13 07:12:34;;;;;;;38.83;22.08;;;;;;;;;;4998189;28;20466;-85
2021/12/13 07:15:37;;;;;;;34.03;22.75;;;;;;;;;;4975655;28;20065;-83
2021/12/13 07:18:06;;;;;;;35.78;22.05;;;;;;;;;;4972617;28;20484;-85
2021/12/13 07:21:01;;;;;;;34.45;23.73;;;;;;;;;;5012864;28;20041;-85
2021/12/13 07:23:49;;;;;;;33.40;22.38;;;;;;;;;;5009987;28;20164;-84
2021/12/13 07:26:16;;;;;;;39.45;24.75;;;;;;;;;;4989861;28;20511;-85
2021/12/13 07:28:43;;;;;;;38.65;25.35;;;;;;;;;;4994368;28;20044;-87
2021/12/13 07:31:12;;;;;;;36.17;24.38;;;;;;;;;;4984869;28;20107;-86
2021/12/13 07:33:38;;;;;;;;;;;;;;;;;;5018703;28;20156;-83
2021/12/13 07:36:20;;;;;;;37.63;25.23;;;;;;;;;;4999871;28;19932;-84
2021/12/13 07:38:56;;;;;;;43.60;26.27;;;;;;;;;;5009203;28;20069;-83
2021/12/13 07:41:27;;;;;;;38.53;26.05;;;;;;;;;;4984316;28;20045;-82
2021/12/13 07:43:54;;;;;;;41.72;26.98;;;;;;;;;;5008889;28;20045;-83
2021/12/13 07:46:21;;;;;;;39.03;25.83;;;;;;;;;;5020523;28;20471;-82
2021/12/13 07:48:49;;;;;;;45.45;27.90;;;;;;;;;;5043109;28;20479;-82
2021/12/13 07:51:17;;;;;;;40.42;26.55;;;;;;;;;;5025502;28;20048;-83
2021/12/13 07:54:05;;;;;;;45.40;27.30;;;;;;;;;;5027836;28;20044;-83
2021/12/13 07:56:48;;;;;;;45.97;28.33;;;;;;;;;;5044882;28;20136;-83
2021/12/13 07:59:33;;;;;;;46.67;29.85;;;;;;;;;;5012692;28;20299;-83
2021/12/13 08:02:05;;;;;;;46.05;30.30;;;;;;;;;;5020688;28;20044;-84
2021/12/13 08:04:50;;;;;;;46.05;29.67;;;;;;;;;;5025601;28;20059;-82
2021/12/13 08:07:20;;;;;;;48.33;29.85;;;;;;;;;;5018033;28;20139;-82
2021/12/13 08:10:06;;;;;;;46.25;30.90;;;;;;;;;;5041053;28;20054;-82
2021/12/13 08:12:41;;;;;;;44.38;30.45;;;;;;;;;;5042784;28;20040;-82
2021/12/13 08:15:26;;;;;;;49.05;30.48;;;;;;;;;;5033949;28;20040;-82
2021/12/13 08:18:11;;;;;;;44.30;29.50;;;;;;;;;;5045784;28;20063;-81
2021/12/13 08:20:57;;;;;;;50.10;30.23;;;;;;;;;;5050003;28;20037;-82
2021/12/13 08:23:36;;;;;;;46.00;28.95;;;;;;;;;;5059279;28;21050;-82
2021/12/13 08:26:23;;;;;;;43.40;30.83;;;;;;;;;;5060737;28;20051;-82
2021/12/13 08:28:51;;;;;;;44.00;30.50;;;;;;;;;;5064510;28;20048;-82
2021/12/13 08:31:22;;;;;;;47.20;32.38;;;;;;;;;;5058870;28;20045;-82
2021/12/13 08:33:50;;;;;;;44.67;28.65;;;;;;;;;;5058410;28;20055;-82
2021/12/13 08:36:17;;;;;;;47.75;30.60;;;;;;;;;;5050588;28;20167;-82
2021/12/13 08:39:02;;;;;;;44.15;29.88;;;;;;;;;;5058516;28;20136;-82
2021/12/13 08:41:47;;;;;;;37.88;27.90;;;;;;;;;;5061960;28;20398;-82
2021/12/13 08:44:14;;;;;;;41.78;29.70;;;;;;;;;;5037751;28;20132;-82
2021/12/13 08:46:59;;;;;;;41.95;28.67;;;;;;;;;;5061036;28;20537;-82
2021/12/13 08:49:45;;;;;;;40.85;28.48;;;;;;;;;;5030797;28;20047;-82
2021/12/13 08:52:32;;;;;;;38.95;28.48;;;;;;;;;;5055493;28;20056;-81
2021/12/13 08:55:12;;;;;;;42.40;28.40;;;;;;;;;;5060946;28;20051;-81
2021/12/13 08:57:58;;;;;;;40.70;27.27;;;;;;;;;;5030758;28;20109;-81
2021/12/13 09:00:27;;;;;;;39.92;26.95;;;;;;;;;;5051556;28;20511;-81
2021/12/13 09:02:55;;;;;;;37.78;27.70;;;;;;;;;;5037430;28;22188;-81
2021/12/13 09:05:24;;;;;;;37.72;26.65;;;;;;;;;;5048750;28;20559;-81
2021/12/13 09:07:55;;;;;;;40.13;26.85;;;;;;;;;;5036333;28;20072;-82
2021/12/13 09:10:22;;;;;;;36.72;26.42;;;;;;;;;;5034926;28;20040;-82
2021/12/13 09:12:56;;;;;;;37.53;28.08;;;;;;;;;;5032142;28;20139;-81
2021/12/13 09:15:26;;;;;;;34.65;26.88;;;;;;;;;;5026924;28;20132;-81
2021/12/13 09:17:52;;;;;;;35.85;26.52;;;;;;;;;;5050169;28;20048;-82
2021/12/13 09:20:41;;;;;;;39.95;27.95;;;;;;;;;;5049288;28;20090;-82
2021/12/13 09:23:20;;;;;;;41.83;27.70;;;;;;;;;;5050340;28;20047;-82
2021/12/13 09:26:05;;;;;;;36.67;27.58;;;;;;;;;;5054602;28;20040;-82
2021/12/13 09:28:36;;;;;;;39.40;27.45;;;;;;;;;;5057821;28;20345;-83
2021/12/13 09:31:22;;;;;;;35.67;26.80;;;;;;;;;;5024647;28;20051;-85
2021/12/13 09:33:50;;;;;;;36.72;25.85;;;;;;;;;;5033339;28;20449;-84
2021/12/13 09:36:22;;;;;;;35.83;26.30;;;;;;;;;;5050332;28;20048;-83
2021/12/13 09:38:58;;;;;;;36.92;25.45;;;;;;;;;;5036101;28;20037;-83
2021/12/13 09:41:27;;;;;;;34.72;24.45;;;;;;;;;;5048465;28;20487;-83
2021/12/13 09:44:13;;;;;;;32.35;24.13;;;;;;;;;;5037149;28;20049;-83
2021/12/13 09:47:07;;;;;;;33.10;25.57;;;;;;;;;;5053167;28;20036;-84
2021/12/13 09:49:45;;;;;;;37.97;24.73;;;;;;;;;;5052368;28;20083;-83
2021/12/13 09:52:16;;;;;;;33.95;25.30;;;;;;;;;;5047116;28;20041;-84
2021/12/13 09:54:47;;;;;;;32.85;24.20;;;;;;;;;;5037925;28;20983;-83
2021/12/13 09:57:16;;;;;;;32.92;24.17;;;;;;;;;;5048228;28;20040;-83
2021/12/13 09:59:44;;;;;;;34.13;23.85;;;;;;;;;;5049010;28;20036;-82
2021/12/13 10:02:19;;;;;;;34.83;24.48;;;;;;;;;;5032490;28;20055;-82
2021/12/13 10:04:46;;;;;;;33.38;23.75;;;;;;;;;;5048937;28;20049;-82
2021/12/13 10:07:16;;;;;;;34.35;23.58;;;;;;;;;;5047758;28;20765;-82
2021/12/13 10:09:44;;;;;;;34.58;24.45;;;;;;;;;;5033469;28;20055;-81
2021/12/13 10:12:15;;;;;;;32.67;23.42;;;;;;;;;;5046644;28;20060;-82
2021/12/13 10:14:46;;;;;;;33.20;24.45;;;;;;;;;;5048801;28;20918;-83
2021/12/13 10:17:14;;;;;;;31.45;22.80;;;;;;;;;;5031981;28;20106;-84
2021/12/13 10:19:43;;;;;;;34.97;25.30;;;;;;;;;;5050895;28;20383;-84
2021/12/13 10:22:09;;;;;;;34.75;23.42;;;;;;;;;;5028569;28;20979;-84
2021/12/13 10:24:39;;;;;;;29.95;23.00;;;;;;;;;;5032083;28;20044;-84
2021/12/13 10:27:10;;;;;;;32.17;23.20;;;;;;;;;;5060676;28;20041;-85
2021/12/13 10:29:44;;;;;;;32.47;22.45;;;;;;;;;;5054844;28;20122;-84
2021/12/13 10:32:12;;;;;;;30.13;22.25;;;;;;;;;;5047674;28;20070;-84
2021/12/13 10:34:40;;;;;;;30.63;22.05;;;;;;;;;;5051673;28;20053;-85
2021/12/13 10:37:16;;;;;;;31.38;22.23;;;;;;;;;;5046230;28;20438;-85
2021/12/13 10:39:44;;;;;;;27.33;21.08;;;;;;;;;;5050133;28;20050;-84
2021/12/13 10:42:14;;;;;;;29.83;21.10;;;;;;;;;;5045161;28;20434;-84
2021/12/13 10:44:44;;;;;;;28.63;21.13;;;;;;;;;;5049033;28;20044;-84
2021/12/13 10:47:12;;;;;;;29.23;20.83;;;;;;;;;;5047727;28;20052;-84
2021/12/13 10:49:39;;;;;;;31.85;21.98;;;;;;;;;;5018482;28;20037;-84
2021/12/13 10:52:12;;;;;;;29.27;19.95;;;;;;;;;;5046624;28;20044;-84
2021/12/13 10:54:40;;;;;;;32.53;21.38;;;;;;;;;;5051999;28;21407;-83
2021/12/13 10:57:06;;;;;;;;;;;;;;;;;;5010189;28;20390;-84
2021/12/13 10:59:33;;;;;;;31.58;19.70;;;;;;;;;;5051880;28;20015;-83
2021/12/13 11:02:04;;;;;;;31.00;20.02;;;;;;;;;;5048822;28;20048;-83
2021/12/13 11:04:36;;;;;;;23.30;18.10;;;;;;;;;;5049611;28;20045;-83
2021/12/13 11:07:04;;;;;;;28.15;20.25;;;;;;;;;;5050305;28;20044;-83
2021/12/13 11:09:30;;;;;;;29.95;18.85;;;;;;;;;;5066455;28;20040;-83
2021/12/13 11:12:04;;;;;;;29.48;19.52;;;;;;;;;;5053410;28;20052;-84
2021/12/13 11:14:31;;;;;;;28.73;20.13;;;;;;;;;;5048693;28;20071;-84
2021/12/13 11:17:00;;;;;;;26.27;18.50;;;;;;;;;;5051042;28;20044;-84
2021/12/13 11:19:28;;;;;;;26.65;19.75;;;;;;;;;;5062631;28;20075;-84
2021/12/13 11:22:00;;;;;;;25.13;18.77;;;;;;;;;;5054345;28;20534;-84
2021/12/13 11:24:27;;;;;;;28.92;19.92;;;;;;;;;;5068378;28;20098;-83
2021/12/13 11:26:57;;;;;;;29.38;19.58;;;;;;;;;;5052101;28;20041;-83
2021/12/13 11:29:25;;;;;;;26.33;19.88;;;;;;;;;;5066727;28;23337;-85
2021/12/13 11:31:56;;;;;;;28.40;19.48;;;;;;;;;;5027283;28;20398;-84
2021/12/13 11:34:42;;;;;;;27.05;18.67;;;;;;;;;;5065854;28;20048;-84
2021/12/13 11:37:27;;;;;;;24.75;18.17;;;;;;;;;;5050961;28;20365;-83
2021/12/13 11:40:18;;;;;;;25.95;18.38;;;;;;;;;;5047395;28;20044;-83
2021/12/13 11:43:04;;;;;;;26.15;19.60;;;;;;;;;;5033233;28;20596;-84
2021/12/13 11:45:49;;;;;;;27.23;18.52;;;;;;;;;;5072508;28;20060;-83
2021/12/13 11:48:34;;;;;;;26.27;18.25;;;;;;;;;;5063346;28;20068;-83
2021/12/13 11:51:18;;;;;;;28.08;19.48;;;;;;;;;;5070287;28;20057;-83
2021/12/13 11:54:04;;;;;;;26.10;17.80;;;;;;;;;;5068893;28;20060;-84
2021/12/13 11:56:50;;;;;;;26.08;18.42;;;;;;;;;;5068938;28;20043;-84
2021/12/13 11:59:35;;;;;;;26.63;18.90;;;;;;;;;;5054289;28;20099;-84
2021/12/13 12:02:20;;;;;;;26.92;18.00;;;;;;;;;;5042685;28;20143;-84
2021/12/13 12:05:05;;;;;;;24.17;17.33;;;;;;;;;;5073284;28;20044;-83
2021/12/13 12:08:04;;;;;;;25.83;18.20;;;;;;;;;;5051829;28;20332;-84
2021/12/13 12:10:50;;;;;;;23.75;17.27;;;;;;;;;;5001279;28;20041;-84
2021/12/13 12:13:36;;;;;;;24.35;17.38;;;;;;;;;;5050800;28;20181;-84
2021/12/13 12:16:05;;;;;;;23.75;17.58;;;;;;;;;;5070391;28;20101;-83
2021/12/13 12:18:34;;;;;;;26.67;18.70;;;;;;;;;;5056907;28;20051;-83
2021/12/13 12:21:19;;;;;;;25.50;17.58;;;;;;;;;;5030480;28;20051;-83
2021/12/13 12:23:49;;;;;;;25.27;18.98;;;;;;;;;;5056067;28;20048;-83
2021/12/13 12:26:16;;;;;;;25.05;18.00;;;;;;;;;;5042646;28;20048;-83
2021/12/13 12:28:43;;;;;;;27.10;17.35;;;;;;;;;;5057447;28;20063;-83
2021/12/13 12:31:11;;;;;;;27.50;18.30;;;;;;;;;;5057377;28;20047;-83
2021/12/13 12:33:38;;;;;;;26.63;17.73;;;;;;;;;;5058467;28;20035;-83
2021/12/13 12:36:07;;;;;;;22.63;16.63;;;;;;;;;;5072570;28;20048;-83
2021/12/13 12:38:34;;;;;;;24.42;17.77;;;;;;;;;;5052187;28;20064;-83
2021/12/13 12:41:07;;;;;;;25.30;17.83;;;;;;;;;;5067745;28;20075;-83
2021/12/13 12:43:36;;;;;;;24.50;17.25;;;;;;;;;;5069608;28;20044;-83
2021/12/13 12:46:06;;;;;;;23.58;16.70;;;;;;;;;;5072355;28;20037;-83
2021/12/13 12:48:50;;;;;;;21.75;17.15;;;;;;;;;;5072509;28;20044;-83
2021/12/13 12:51:40;;;;;;;26.02;17.60;;;;;;;;;;5035747;28;20048;-83
2021/12/13 12:54:19;;;;;;;21.92;16.70;;;;;;;;;;5063647;28;20105;-83
2021/12/13 12:57:04;;;;;;;25.25;18.67;;;;;;;;;;5070126;28;20041;-83
2021/12/13 12:59:32;;;;;;;22.85;18.05;;;;;;;;;;5040661;28;20131;-83
2021/12/13 13:02:00;;;;;;;25.48;19.10;;;;;;;;;;5062228;28;20036;-83
2021/12/13 13:04:38;;;;;;;24.15;18.85;;;;;;;;;;5079027;28;20055;-83
2021/12/13 13:07:06;;;;;;;34.83;29.60;;;;;;;;;;5058197;28;20041;-83
2021/12/13 13:09:32;;;;;;;;;;;;;;;;;;5039271;28;20032;-83
2021/12/13 13:11:59;;;;;;;28.02;17.50;;;;;;;;;;5071750;28;20409;-83
2021/12/13 13:14:35;;;;;;;25.33;18.73;;;;;;;;;;5064208;28;20466;-83
2021/12/13 13:17:02;;;;;;;23.02;17.58;;;;;;;;;;5072813;28;20080;-83
2021/12/13 13:19:34;;;;;;;22.63;17.43;;;;;;;;;;5062655;28;20043;-83
2021/12/13 13:22:05;;;;;;;23.35;16.77;;;;;;;;;;5066401;28;20047;-83
2021/12/13 13:24:32;;;;;;;19.65;16.05;;;;;;;;;;5052750;28;20395;-83
2021/12/13 13:26:59;;;;;;;21.80;17.42;;;;;;;;;;5052539;28;20436;-83
2021/12/13 13:29:26;;;;;;;21.77;16.27;;;;;;;;;;5048769;28;20055;-83
2021/12/13 13:31:54;;;;;;;21.95;16.38;;;;;;;;;;5064169;28;20048;-83
2021/12/13 13:34:32;;;;;;;24.95;17.55;;;;;;;;;;5055140;28;20036;-83
2021/12/13 13:36:59;;;;;;;23.33;16.95;;;;;;;;;;5072007;28;20036;-84
2021/12/13 13:39:46;;;;;;;20.48;16.67;;;;;;;;;;5037745;28;20040;-83
2021/12/13 13:42:33;;;;;;;24.98;17.42;;;;;;;;;;5053929;28;20705;-83
2021/12/13 13:45:02;;;;;;;22.38;16.77;;;;;;;;;;5039472;28;20044;-83
2021/12/13 13:47:31;;;;;;;23.10;16.48;;;;;;;;;;5069151;28;20509;-82
2021/12/13 13:49:58;;;;;;;23.05;16.77;;;;;;;;;;5078446;28;20173;-83
2021/12/13 13:52:26;;;;;;;25.73;16.67;;;;;;;;;;5077908;28;20131;-83
2021/12/13 13:54:55;;;;;;;22.65;15.52;;;;;;;;;;5071103;28;20048;-83
2021/12/13 13:57:23;;;;;;;23.58;16.10;;;;;;;;;;5058745;28;20488;-83
2021/12/13 13:59:50;;;;;;;23.67;16.92;;;;;;;;;;5078867;28;20088;-83
2021/12/13 14:02:19;;;;;;;23.55;16.83;;;;;;;;;;5071904;28;20055;-83
2021/12/13 14:04:47;;;;;;;24.17;16.95;;;;;;;;;;5063047;28;20126;-83
2021/12/13 14:07:15;;;;;;;24.95;17.27;;;;;;;;;;5059447;28;20391;-83
2021/12/13 14:10:07;;;;;;;23.17;17.08;;;;;;;;;;5048844;28;20083;-83
2021/12/13 14:12:35;;;;;;;23.45;16.38;;;;;;;;;;5057631;28;20090;-83
2021/12/13 14:15:12;;;;;;;21.85;15.82;;;;;;;;;;5070686;28;20639;-83
2021/12/13 14:17:40;;;;;;;21.95;16.45;;;;;;;;;;5041553;28;20147;-83
2021/12/13 14:20:14;;;;;;;22.80;15.88;;;;;;;;;;5007674;28;20040;-83
2021/12/13 14:22:41;;;;;;;25.27;17.08;;;;;;;;;;5042320;28;20052;-83
2021/12/13 14:25:08;;;;;;;21.52;15.75;;;;;;;;;;5035639;28;20495;-83
2021/12/13 14:27:34;;;;;;;22.48;16.05;;;;;;;;;;5031810;28;20067;-83
2021/12/13 14:30:09;;;;;;;20.17;14.63;;;;;;;;;;5024624;28;20132;-83
2021/12/13 14:32:36;;;;;;;22.83;15.82;;;;;;;;;;5011630;28;20047;-83
2021/12/13 14:35:18;;;;;;;21.63;16.98;;;;;;;;;;5030302;28;20480;-84
2021/12/13 14:37:45;;;;;;;24.02;17.10;;;;;;;;;;5008438;28;20045;-84
2021/12/13 14:40:14;;;;;;;22.80;17.50;;;;;;;;;;5023114;28;20041;-83
2021/12/13 14:42:40;;;;;;;24.00;16.98;;;;;;;;;;5031153;28;21113;-83
2021/12/13 14:45:13;;;;;;;25.40;17.90;;;;;;;;;;5047183;28;20095;-83
2021/12/13 14:47:48;;;;;;;24.15;17.67;;;;;;;;;;5048639;28;20041;-82
2021/12/13 14:50:36;;;;;;;22.60;16.98;;;;;;;;;;5029478;28;20068;-82
2021/12/13 14:53:09;;;;;;;24.45;16.40;;;;;;;;;;5047247;28;20132;-83
2021/12/13 14:55:41;;;;;;;22.70;17.38;;;;;;;;;;5029862;28;20110;-83
2021/12/13 14:58:09;;;;;;;23.42;17.35;;;;;;;;;;5045051;28;20400;-83
2021/12/13 15:00:37;;;;;;;24.00;16.85;;;;;;;;;;5047585;28;20040;-83
2021/12/13 15:03:15;;;;;;;21.88;15.70;;;;;;;;;;5032895;28;20048;-82
2021/12/13 15:05:43;;;;;;;22.80;16.23;;;;;;;;;;5012952;28;20114;-83